Nearby METAR Reports

 

EGWC - Cosford Raf, United Kingdom
Distance from station: SSW 22km
Updated: 25/06/2022 15:50
NOT Current
Nearby showers, Partly cloudy
Nearby showers, Partly cloudy
 Wind from SSW
Wind: SSW 12 mph , 19 km/h, Gust: 24 mph , 39 km/h
Temperature: 18°C
Dew Point: 7°C
Humidity: 49%
Barometer: 1005 hPa
Summary: Nearby Showers
Clouds: Partly cloudy
Visibility: 6 miles , 10 km
Cloud details: Partly cloudy 1372 m
2022/06/25 14:50 EGWC 251450Z 20010G21KT 9999 VCSH SCT045 18/07 Q1005 RMK BLU
EGOS - Shawbury Raf, United Kingdom
Distance from station: W 37km
Updated: 26/06/2022 12:20
Overcast
Overcast
 Wind from SSW
Wind: SSW 23 mph , 37 km/h
Temperature: 18°C
Dew Point: 6°C
Humidity: 46%
Barometer: 1007 hPa
Clouds: Overcast
Visibility: 6 miles , 10 km
Cloud details: Overcast 1494 m
2022/06/26 11:20 EGOS 261120Z AUTO 20020KT 9999 OVC049/// 18/06 Q1007
 
EGBB - Birmingham Airpo, United Kingdom
Distance from station: SE 44km
Updated: 26/06/2022 12:50
Partly cloudy
Partly cloudy
 Wind from S
Wind: S 17 mph , 28 km/h, Gust: 29 mph , 46 km/h
Temperature: 19°C
Dew Point: 8°C
Humidity: 49%
Barometer: 1009 hPa
Clouds: Partly cloudy
Visibility: 6 miles , 10 km
Cloud details: Partly cloudy 1219 m
2022/06/26 11:50 EGBB 261150Z 18015G25KT 160V220 9999 SCT040 19/08 Q1009
EGNX - East Midlands, United Kingdom
Distance from station: E 54km
Updated: 26/06/2022 12:50
Partly cloudy
Partly cloudy
 Wind from S
Wind: S 22 mph , 35 km/h, Gust: 33 mph , 54 km/h
Temperature: 19°C
Dew Point: 7°C
Humidity: 46%
Barometer: 1009 hPa
Clouds: Partly cloudy
Visibility: 6 miles , 10 km
Cloud details: Partly cloudy 1341 m
2022/06/26 11:50 EGNX 261150Z 19019G29KT 160V220 9999 SCT044 19/07 Q1009
 
EGCC - Manchester Intl, United Kingdom
Distance from station: N 63km
Updated: 26/06/2022 12:50
Mostly cloudy
Mostly cloudy
 Wind from SSW
Wind: SSW 14 mph , 22 km/h
Temperature: 18°C
Dew Point: 7°C
Humidity: 49%
Barometer: 1007 hPa
Clouds: Mostly cloudy
Visibility: 6 miles , 10 km
Cloud details: Mostly cloudy 1494 m
2022/06/26 11:50 EGCC 261150Z 20012KT 9999 BKN049 18/07 Q1007
EGBE - Coventry Airport, United Kingdom
Distance from station: SE 65km
Updated: 18/07/2017 14:50
NOT Current
Clear
Clear
 Wind from E
Wind: E 16 mph , 26 km/h
Temperature: 27°C
Heat Index: 27°C
Dew Point: 14°C
Humidity: 45%
Barometer: 1015 hPa
Summary: Clear
Visibility: greater than 7 miles , 10 km
2017/07/18 13:50 EGBE 181350Z 10014KT 060V120 CAVOK 27/14 Q1015
 
EGNR - Hawarden (aut), United Kingdom
Distance from station: NW 70km
Updated: 26/06/2022 12:50
Mostly cloudy
Mostly cloudy
 Wind from S
Wind: S 29 mph , 46 km/h, Gust: 41 mph , 67 km/h
Temperature: 18°C
Dew Point: 8°C
Humidity: 52%
Barometer: 1006 hPa
Clouds: Mostly cloudy
Visibility: 6 miles , 10 km
Cloud details: Partly cloudy 671 m
Mostly cloudy 1097 m
2022/06/26 11:50 EGNR 261150Z 18025G36KT 9999 SCT022 BKN036 18/08 Q1006
EGGP - Liverpool Airpor, United Kingdom
Distance from station: NW 76km
Updated: 26/06/2022 12:50
Light drizzle, Mostly cloudy
Light drizzle, Mostly cloudy
 Wind from S
Wind: S 26 mph , 43 km/h
Temperature: 18°C
Dew Point: 8°C
Humidity: 52%
Barometer: 1006 hPa
Summary: Light Drizzle
Clouds: Mostly cloudy
Visibility: 6 miles , 10 km
Cloud details: Partly cloudy 457 m
Mostly cloudy 640 m
2022/06/26 11:50 EGGP 261150Z 18023KT 9999 -DZ SCT015 BKN021 18/08 Q1006